createdAt,value
2018-04-11T00:00:40.319Z,3.70
2018-04-11T00:03:12.497Z,3.10
2018-04-11T00:05:45.457Z,3.20
2018-04-11T00:08:17.617Z,3.37
2018-04-11T00:10:49.797Z,3.50
2018-04-11T00:13:22.706Z,3.67
2018-04-11T00:15:54.918Z,3.10
2018-04-11T00:18:27.200Z,3.30
2018-04-11T00:20:59.440Z,3.47
2018-04-11T00:23:31.701Z,3.83
2018-04-11T00:26:04.006Z,3.43
2018-04-11T00:28:36.310Z,4.33
2018-04-11T00:31:08.880Z,3.73
2018-04-11T00:33:41.477Z,3.97
2018-04-11T00:36:13.636Z,4.07
2018-04-11T00:38:46.595Z,3.90
2018-04-11T00:41:18.735Z,3.80
2018-04-11T00:43:51.036Z,4.00
2018-04-11T00:46:23.197Z,4.47
2018-04-11T00:48:55.356Z,4.57
2018-04-11T00:51:27.536Z,5.13
2018-04-11T00:53:59.798Z,4.67
2018-04-11T00:56:32.036Z,4.63
2018-04-11T00:59:04.355Z,4.10
2018-04-11T01:01:36.594Z,4.47
2018-04-11T01:04:08.957Z,4.73
2018-04-11T01:06:41.936Z,4.80
2018-04-11T01:09:14.313Z,4.97
2018-04-11T01:11:46.552Z,4.93
2018-04-11T01:14:18.820Z,4.63
2018-04-11T01:16:51.112Z,4.63
2018-04-11T01:19:23.372Z,4.90
2018-04-11T01:21:55.593Z,4.70
2018-04-11T01:24:27.837Z,4.67
2018-04-11T01:27:00.073Z,5.63
2018-04-11T01:29:32.273Z,5.20
2018-04-11T01:32:04.474Z,6.43
2018-04-11T01:34:36.753Z,6.60
2018-04-11T01:37:09.033Z,6.20
2018-04-11T01:39:42.072Z,6.37
2018-04-11T01:42:14.352Z,6.13
2018-04-11T01:44:47.452Z,6.50
2018-04-11T01:47:19.753Z,6.33
2018-04-11T01:49:52.012Z,5.53
2018-04-11T01:52:19.260Z,7.10
2018-04-11T01:54:52.317Z,6.50
2018-04-11T01:57:24.473Z,7.27
2018-04-11T01:59:56.713Z,6.23
2018-04-11T02:02:28.953Z,6.27
2018-04-11T02:05:01.114Z,6.33
2018-04-11T02:07:33.354Z,6.43
2018-04-11T02:10:05.555Z,6.30
2018-04-11T02:12:37.754Z,6.20
2018-04-11T02:15:09.993Z,6.23
2018-04-11T02:17:43.432Z,6.07
2018-04-11T02:20:15.853Z,6.33
2018-04-11T02:22:48.013Z,6.80
2018-04-11T02:25:20.993Z,6.73
2018-04-11T02:27:53.153Z,6.77
2018-04-11T02:30:25.421Z,7.00
2018-04-11T02:32:57.674Z,6.73
2018-04-11T02:35:29.889Z,7.10
2018-04-11T02:38:02.174Z,6.80
2018-04-11T02:40:34.354Z,7.63
2018-04-11T02:43:06.501Z,7.73
2018-04-11T02:45:38.782Z,8.20
2018-04-11T02:48:10.948Z,8.17
2018-04-11T02:50:43.153Z,8.27
2018-04-11T02:53:15.373Z,8.37
2018-04-11T02:55:47.594Z,8.50
2018-04-11T02:58:19.913Z,9.07
2018-04-11T03:00:52.252Z,8.73
2018-04-11T03:03:24.477Z,9.00
2018-04-11T03:05:56.793Z,8.17
2018-04-11T03:08:29.101Z,7.50
2018-04-11T03:11:01.421Z,8.00
2018-04-11T03:13:33.774Z,8.97
2018-04-11T03:16:06.073Z,8.37
2018-04-11T03:18:38.385Z,9.13
2018-04-11T03:21:10.713Z,8.93
2018-04-11T03:23:43.032Z,10.03
2018-04-11T03:26:15.173Z,7.53
2018-04-11T03:28:48.129Z,9.33
2018-04-11T03:31:20.389Z,9.00
2018-04-11T03:33:53.468Z,9.60
2018-04-11T03:36:25.649Z,10.13
2018-04-11T03:38:57.832Z,9.47
2018-04-11T03:41:31.529Z,10.07
2018-04-11T03:44:03.769Z,10.13
2018-04-11T03:46:35.954Z,9.03
2018-04-11T03:49:08.129Z,10.20
2018-04-11T03:51:40.390Z,9.93
2018-04-11T03:54:12.609Z,10.40
2018-04-11T03:56:44.829Z,10.17
2018-04-11T03:59:17.051Z,10.63
2018-04-11T04:01:49.949Z,10.73
2018-04-11T04:04:22.149Z,10.57
2018-04-11T04:06:54.288Z,10.37
2018-04-11T04:09:26.589Z,10.60
2018-04-11T04:11:58.828Z,10.50
2018-04-11T04:14:49.169Z,10.80
2018-04-11T04:17:39.593Z,10.77
2018-04-11T04:20:37.411Z,11.50
2018-04-11T04:23:10.394Z,11.20
2018-04-11T04:25:42.692Z,11.73
2018-04-11T04:28:14.910Z,11.97
2018-04-11T04:30:47.149Z,11.80
2018-04-11T04:33:20.156Z,12.43
2018-04-11T04:35:52.328Z,11.53
2018-04-11T04:38:24.568Z,12.33
2018-04-11T04:40:57.488Z,12.97
2018-04-11T04:43:29.701Z,12.47
2018-04-11T04:46:01.912Z,13.43
2018-04-11T04:48:34.070Z,12.93
2018-04-11T04:51:06.707Z,13.27
2018-04-11T04:53:39.387Z,13.20
2018-04-11T04:56:11.587Z,13.17
2018-04-11T04:58:43.828Z,14.07
2018-04-11T05:01:16.050Z,13.57
2018-04-11T05:03:48.271Z,13.07
2018-04-11T05:06:20.468Z,13.40
2018-04-11T05:08:52.727Z,13.40
2018-04-11T05:11:24.952Z,14.07
2018-04-11T05:13:57.148Z,13.53
2018-04-11T05:16:30.088Z,14.80
2018-04-11T05:19:02.248Z,15.87
2018-04-11T05:21:34.431Z,16.40
2018-04-11T05:24:06.687Z,16.37
2018-04-11T05:26:38.868Z,16.27
2018-04-11T05:29:11.429Z,16.37
2018-04-11T05:31:43.807Z,14.93
2018-04-11T05:34:16.047Z,15.53
2018-04-11T05:36:48.287Z,15.30
2018-04-11T05:39:20.507Z,16.07
2018-04-11T05:41:52.708Z,14.93
2018-04-11T05:44:25.006Z,14.80
2018-04-11T05:46:57.306Z,15.07
2018-04-11T05:49:29.547Z,15.20
2018-04-11T05:52:01.729Z,13.53
2018-04-11T05:54:33.927Z,15.93
2018-04-11T05:57:06.126Z,14.27
2018-04-11T05:59:38.306Z,15.37
2018-04-11T06:02:10.526Z,15.33
2018-04-11T06:04:42.766Z,14.57
2018-04-11T06:07:14.946Z,14.73
2018-04-11T06:09:47.126Z,14.83
2018-04-11T06:12:19.308Z,13.80
2018-04-11T06:14:51.566Z,14.17
2018-04-11T06:17:23.686Z,14.13
2018-04-11T06:19:56.625Z,14.97
2018-04-11T06:22:28.846Z,15.43
2018-04-11T06:25:01.066Z,14.90
2018-04-11T06:27:33.266Z,14.17
2018-04-11T06:30:05.526Z,15.03
2018-04-11T06:32:37.691Z,15.20
2018-04-11T06:35:09.914Z,15.27
2018-04-11T06:37:42.086Z,15.47
2018-04-11T06:40:14.286Z,16.43
2018-04-11T06:42:46.427Z,15.50
2018-04-11T06:45:18.626Z,16.97
2018-04-11T06:47:50.726Z,16.07
2018-04-11T06:50:22.905Z,17.30
2018-04-11T06:52:55.305Z,17.00
2018-04-11T06:55:27.525Z,17.10
2018-04-11T06:57:59.805Z,17.27
2018-04-11T07:00:32.006Z,17.60
2018-04-11T07:03:04.125Z,17.50
2018-04-11T07:05:36.369Z,19.57
2018-04-11T07:08:09.205Z,17.40
2018-04-11T07:10:41.745Z,19.27
2018-04-11T07:13:13.946Z,19.40
2018-04-11T07:15:46.125Z,19.93
2018-04-11T07:18:18.289Z,21.20
2018-04-11T07:20:50.465Z,20.33
2018-04-11T07:23:22.588Z,20.53
2018-04-11T07:25:55.532Z,20.53
2018-04-11T07:28:27.685Z,22.00
2018-04-11T07:30:59.725Z,20.50
2018-04-11T07:33:31.904Z,19.90
2018-04-11T07:36:04.105Z,20.60
2018-04-11T07:38:36.264Z,21.57
2018-04-11T07:41:08.469Z,20.43
2018-04-11T07:43:41.064Z,21.20
2018-04-11T07:46:13.438Z,20.03
2018-04-11T07:48:45.668Z,20.43
2018-04-11T07:51:18.605Z,21.10
2018-04-11T07:53:50.770Z,20.03
2018-04-11T07:56:22.949Z,21.03
2018-04-11T07:58:55.085Z,19.50
2018-04-11T08:01:27.265Z,21.80
2018-04-11T08:03:59.388Z,21.07
2018-04-11T08:06:31.545Z,19.87
2018-04-11T08:09:03.885Z,20.57
2018-04-11T08:11:36.105Z,20.13
2018-04-11T08:14:08.385Z,19.27
2018-04-11T08:16:40.625Z,19.13
2018-04-11T08:19:12.945Z,19.27
2018-04-11T08:21:45.225Z,20.20
2018-04-11T08:24:17.406Z,19.60
2018-04-11T08:26:49.629Z,20.80
2018-04-11T08:29:21.905Z,20.63
2018-04-11T08:31:54.145Z,19.60
2018-04-11T08:34:26.265Z,20.57
2018-04-11T08:36:58.449Z,20.47
2018-04-11T08:39:30.585Z,19.63
2018-04-11T08:42:02.788Z,20.10
2018-04-11T08:44:34.947Z,19.17
2018-04-11T08:47:07.166Z,18.30
2018-04-11T08:49:39.285Z,19.30
2018-04-11T08:52:11.465Z,19.70
2018-04-11T08:54:43.744Z,19.70
2018-04-11T08:57:15.985Z,19.83
2018-04-11T08:59:48.125Z,19.57
2018-04-11T09:02:20.305Z,20.50
2018-04-11T09:04:52.525Z,19.50
2018-04-11T09:07:25.485Z,20.13
2018-04-11T09:09:57.625Z,19.40
2018-04-11T09:12:29.846Z,18.97
2018-04-11T09:15:02.045Z,18.00
2018-04-11T09:17:34.185Z,18.80
2018-04-11T09:20:06.346Z,19.23
2018-04-11T09:22:38.585Z,19.77
2018-04-11T09:25:10.705Z,19.73
2018-04-11T09:27:42.925Z,19.23
2018-04-11T09:30:15.126Z,19.17
2018-04-11T09:32:47.325Z,18.50
2018-04-11T09:35:19.545Z,19.27
2018-04-11T09:37:51.685Z,18.13
2018-04-11T09:40:23.845Z,18.20
2018-04-11T09:42:56.027Z,18.43
2018-04-11T09:45:28.205Z,18.33
2018-04-11T09:48:00.365Z,19.30
2018-04-11T09:50:32.505Z,18.87
2018-04-11T09:53:04.725Z,18.63
2018-04-11T09:55:36.946Z,18.47
2018-04-11T09:58:09.165Z,19.27
2018-04-11T10:00:41.465Z,17.33
2018-04-11T10:03:13.785Z,18.40
2018-04-11T10:05:45.965Z,17.87
2018-04-11T10:08:18.165Z,18.30
2018-04-11T10:10:50.325Z,18.20
2018-04-11T10:13:22.506Z,17.10
2018-04-11T10:15:55.485Z,17.70
2018-04-11T10:18:27.825Z,17.30
2018-04-11T10:20:59.925Z,17.23
2018-04-11T10:23:32.165Z,20.40
2018-04-11T10:26:04.426Z,17.70
2018-04-11T10:28:37.325Z,18.47
2018-04-11T10:31:09.485Z,17.27
2018-04-11T10:33:42.531Z,17.73
2018-04-11T10:36:14.829Z,17.83
2018-04-11T10:38:47.052Z,17.03
2018-04-11T10:41:19.391Z,16.80
2018-04-11T10:43:51.591Z,16.90
2018-04-11T10:46:23.834Z,17.80
2018-04-11T10:48:56.071Z,17.80
2018-04-11T10:51:29.112Z,16.30
2018-04-11T10:54:01.332Z,15.97
2018-04-11T10:56:33.492Z,16.03
2018-04-11T10:59:05.671Z,15.90
2018-04-11T11:01:38.634Z,15.47
2018-04-11T11:04:10.771Z,15.90
2018-04-11T11:06:42.911Z,15.83
2018-04-11T11:09:15.037Z,15.27
2018-04-11T11:11:48.054Z,14.23
2018-04-11T11:14:20.271Z,14.27
2018-04-11T11:16:52.532Z,12.50
2018-04-11T11:19:24.671Z,13.47
2018-04-11T11:21:56.932Z,11.50
2018-04-11T11:24:29.112Z,11.63
2018-04-11T11:27:01.352Z,11.93
2018-04-11T11:29:34.231Z,10.60
2018-04-11T11:32:06.455Z,11.70
2018-04-11T11:34:38.691Z,13.07
2018-04-11T11:37:11.024Z,12.00
2018-04-11T11:39:43.183Z,11.50
2018-04-11T11:42:15.434Z,11.53
2018-04-11T11:44:47.631Z,11.23
2018-04-11T11:47:19.812Z,9.43
2018-04-11T11:49:52.774Z,6.93
2018-04-11T11:52:24.971Z,6.57
2018-04-11T11:54:57.192Z,5.93
2018-04-11T11:57:29.413Z,8.07
2018-04-11T12:00:01.592Z,8.00
2018-04-11T12:02:33.791Z,8.13
2018-04-11T12:05:06.711Z,7.90
2018-04-11T12:07:38.892Z,7.67
2018-04-11T12:10:11.111Z,8.70
2018-04-11T12:12:43.292Z,7.63
2018-04-11T12:15:16.192Z,7.40
2018-04-11T12:17:48.392Z,6.90
2018-04-11T12:20:20.591Z,7.60
2018-04-11T12:22:52.878Z,7.60
2018-04-11T12:25:25.111Z,6.77
2018-04-11T12:27:57.335Z,6.50
2018-04-11T12:30:30.231Z,6.80
2018-04-11T12:33:02.472Z,6.00
2018-04-11T12:35:35.792Z,6.93
2018-04-11T12:38:09.331Z,6.73
2018-04-11T12:40:41.511Z,6.33
2018-04-11T12:43:13.719Z,6.90
2018-04-11T12:45:45.931Z,7.23
2018-04-11T12:48:18.194Z,6.97
2018-04-11T12:50:50.433Z,7.10
2018-04-11T12:53:22.635Z,7.77
2018-04-11T12:55:55.592Z,7.67
2018-04-11T12:58:28.525Z,6.13
2018-04-11T13:01:00.692Z,6.83
2018-04-11T13:03:33.027Z,6.77
2018-04-11T13:06:05.326Z,6.57
2018-04-11T13:08:37.410Z,6.10
2018-04-11T13:11:09.573Z,6.70
2018-04-11T13:13:41.813Z,6.43
2018-04-11T13:16:13.966Z,5.40
2018-04-11T13:18:46.933Z,5.77
2018-04-11T13:21:19.172Z,5.83
2018-04-11T13:23:52.147Z,5.83
2018-04-11T13:26:24.328Z,5.60
2018-04-11T13:28:56.526Z,6.30
2018-04-11T13:31:28.686Z,6.30
2018-04-11T13:34:00.942Z,6.03
2018-04-11T13:36:33.103Z,5.47
2018-04-11T13:39:05.423Z,7.33
2018-04-11T13:41:38.344Z,7.07
2018-04-11T13:44:10.623Z,6.63
2018-04-11T13:46:42.842Z,6.70
2018-04-11T13:49:15.102Z,7.73
2018-04-11T13:51:47.302Z,7.07
2018-04-11T13:54:19.603Z,7.27
2018-04-11T13:56:51.783Z,7.13
2018-04-11T13:59:24.007Z,6.77
2018-04-11T14:01:56.243Z,7.50
2018-04-11T14:04:28.511Z,9.13
2018-04-11T14:07:00.716Z,8.73
2018-04-11T14:09:33.009Z,7.10
2018-04-11T14:12:05.873Z,6.80
2018-04-11T14:14:38.289Z,7.60
2018-04-11T14:17:10.684Z,7.57
2018-04-11T14:19:42.923Z,8.60
2018-04-11T14:22:16.063Z,9.93
2018-04-11T14:24:48.347Z,10.33
2018-04-11T14:27:20.443Z,9.37
2018-04-11T14:29:52.663Z,9.70
2018-04-11T14:32:24.624Z,9.07
2018-04-11T14:34:56.843Z,8.77
2018-04-11T14:37:28.797Z,8.70
2018-04-11T14:40:01.070Z,10.33
2018-04-11T14:42:33.325Z,9.67
2018-04-11T14:45:05.601Z,9.43
2018-04-11T14:47:37.879Z,9.43
2018-04-11T14:50:10.082Z,10.33
2018-04-11T14:52:41.968Z,8.87
2018-04-11T14:55:14.139Z,10.07
2018-04-11T14:57:47.020Z,8.07
2018-04-11T15:00:19.281Z,8.67
2018-04-11T15:02:51.441Z,8.73
2018-04-11T15:05:23.599Z,8.30
2018-04-11T15:07:55.760Z,8.17
2018-04-11T15:10:27.999Z,8.53
2018-04-11T15:13:00.100Z,9.30
2018-04-11T15:15:32.147Z,8.73
2018-04-11T15:18:04.243Z,8.00
2018-04-11T15:20:36.399Z,7.97
2018-04-11T15:23:08.629Z,8.13
2018-04-11T15:25:41.560Z,8.00
2018-04-11T15:28:13.619Z,8.77
2018-04-11T15:30:45.823Z,8.33
2018-04-11T15:33:17.982Z,8.03
2018-04-11T15:35:50.179Z,7.33
2018-04-11T15:38:22.360Z,6.73
2018-04-11T15:40:54.599Z,5.13
2018-04-11T15:43:26.821Z,5.60
2018-04-11T15:45:59.780Z,5.80
2018-04-11T15:48:32.740Z,5.47
2018-04-11T15:51:05.019Z,5.70
2018-04-11T15:53:37.266Z,5.60
2018-04-11T15:56:09.479Z,4.77
2018-04-11T15:58:41.620Z,5.43
2018-04-11T16:01:13.840Z,4.40
2018-04-11T16:03:46.787Z,5.60
2018-04-11T16:06:18.964Z,4.30
2018-04-11T16:08:51.127Z,4.53
2018-04-11T16:11:24.067Z,4.10
2018-04-11T16:13:56.970Z,4.80
2018-04-11T16:16:29.189Z,8.07
2018-04-11T16:19:02.089Z,5.00
2018-04-11T16:21:34.331Z,5.27
2018-04-11T16:24:06.486Z,5.47
2018-04-11T16:26:38.748Z,4.37
2018-04-11T16:29:10.889Z,4.90
2018-04-11T16:31:43.168Z,4.50
2018-04-11T16:34:15.387Z,4.87
2018-04-11T16:36:47.623Z,4.87
2018-04-11T16:39:19.827Z,4.33
2018-04-11T16:41:52.828Z,4.87
2018-04-11T16:44:24.967Z,4.33
2018-04-11T16:46:57.149Z,4.47
2018-04-11T16:49:29.267Z,4.10
2018-04-11T16:52:01.507Z,5.00
2018-04-11T16:54:33.667Z,4.37
2018-04-11T16:57:06.627Z,3.97
2018-04-11T16:59:38.767Z,3.23
2018-04-11T17:02:11.007Z,3.63
2018-04-11T17:04:43.287Z,2.90
2018-04-11T17:07:15.487Z,3.07
2018-04-11T17:09:47.727Z,3.20
2018-04-11T17:12:19.951Z,3.67
2018-04-11T17:14:52.088Z,3.97
2018-04-11T17:17:24.309Z,3.00
2018-04-11T17:19:56.527Z,2.57
2018-04-11T17:22:46.827Z,2.50
2018-04-11T17:25:37.130Z,2.57
2018-04-11T17:28:28.347Z,2.50
2018-04-11T17:34:00.093Z,2.33
2018-04-11T17:36:32.347Z,2.73
2018-04-11T17:39:04.667Z,3.00
2018-04-11T17:41:36.794Z,2.63
2018-04-11T17:44:09.070Z,2.53
2018-04-11T17:46:41.207Z,2.53
2018-04-11T17:49:13.387Z,5.70
2018-04-11T17:51:46.248Z,3.10
2018-04-11T17:54:18.471Z,3.00
2018-04-11T17:56:51.447Z,2.57
2018-04-11T17:59:23.748Z,2.53
2018-04-11T18:01:56.713Z,2.70
2018-04-11T18:04:28.893Z,2.60
2018-04-11T18:07:01.111Z,2.80
2018-04-11T18:09:34.049Z,2.57
2018-04-11T18:12:06.270Z,3.17
2018-04-11T18:14:38.511Z,2.50
2018-04-11T18:17:11.430Z,2.80
2018-04-11T18:19:43.690Z,2.77
2018-04-11T18:22:15.911Z,2.87
2018-04-11T18:24:48.115Z,3.13
2018-04-11T18:27:20.231Z,2.77
2018-04-11T18:29:52.477Z,2.90
2018-04-11T18:32:24.631Z,2.80
2018-04-11T18:34:56.910Z,2.87
2018-04-11T18:37:29.070Z,3.00
2018-04-11T18:40:01.411Z,2.80
2018-04-11T18:42:33.671Z,2.60
2018-04-11T18:45:06.770Z,2.70
2018-04-11T18:47:39.031Z,3.00
2018-04-11T18:50:11.210Z,3.20
2018-04-11T18:52:43.450Z,3.10
2018-04-11T18:55:15.751Z,2.80
2018-04-11T18:57:47.932Z,2.90
2018-04-11T19:00:20.891Z,3.30
2018-04-11T19:02:53.032Z,3.03
2018-04-11T19:05:25.271Z,3.00
2018-04-11T19:07:58.191Z,3.07
2018-04-11T19:10:30.432Z,2.93
2018-04-11T19:13:02.725Z,2.93
2018-04-11T19:15:34.990Z,2.83
2018-04-11T19:18:07.311Z,2.80
2018-04-11T19:20:39.610Z,2.03
2018-04-11T19:23:11.791Z,1.57
2018-04-11T19:25:43.990Z,2.30
2018-04-11T19:28:16.150Z,1.93
2018-04-11T19:30:48.410Z,2.00
2018-04-11T19:33:20.551Z,1.87
2018-04-11T19:35:52.811Z,1.80
2018-04-11T19:38:25.731Z,2.00
2018-04-11T19:40:58.011Z,2.00
2018-04-11T19:43:30.230Z,1.93
2018-04-11T19:46:02.531Z,2.07
2018-04-11T19:48:34.811Z,2.27
2018-04-11T19:51:07.111Z,1.80
2018-04-11T19:53:39.309Z,2.23
2018-04-11T19:56:11.551Z,1.90
2018-04-11T19:58:43.779Z,2.13
2018-04-11T20:01:15.991Z,1.90
2018-04-11T20:03:48.352Z,2.30
2018-04-11T20:06:20.511Z,2.00
2018-04-11T20:08:52.691Z,1.73
2018-04-11T20:11:24.954Z,1.80
2018-04-11T20:13:57.286Z,2.37
2018-04-11T20:16:29.671Z,2.10
2018-04-11T20:19:01.972Z,1.90
2018-04-11T20:21:34.271Z,2.33
2018-04-11T20:24:06.510Z,2.07
2018-04-11T20:26:38.885Z,2.23
2018-04-11T20:29:11.058Z,2.23
2018-04-11T20:31:43.990Z,2.07
2018-04-11T20:34:16.230Z,2.73
2018-04-11T20:36:48.431Z,2.20
2018-04-11T20:39:20.952Z,1.90
2018-04-11T20:41:53.155Z,2.23
2018-04-11T20:44:25.410Z,2.43
2018-04-11T20:46:57.810Z,2.40
2018-04-11T20:49:30.750Z,3.03
2018-04-11T20:52:02.970Z,2.27
2018-04-11T20:54:35.210Z,2.10
2018-04-11T20:57:07.450Z,2.63
2018-04-11T20:59:39.670Z,2.77
2018-04-11T21:02:12.614Z,2.60
2018-04-11T21:04:44.811Z,2.20
2018-04-11T21:07:17.070Z,2.43
2018-04-11T21:09:49.257Z,2.40
2018-04-11T21:12:21.473Z,1.93
2018-04-11T21:14:53.610Z,2.90
2018-04-11T21:17:25.851Z,2.27
2018-04-11T21:19:58.051Z,1.93
2018-04-11T21:22:30.736Z,1.80
2018-04-11T21:25:03.631Z,2.37
2018-04-11T21:27:35.894Z,2.27
2018-04-11T21:30:08.143Z,2.50
2018-04-11T21:32:40.364Z,2.13
2018-04-11T21:35:12.503Z,2.10
2018-04-11T21:37:44.744Z,2.20
2018-04-11T21:40:16.989Z,2.87
2018-04-11T21:42:49.243Z,2.10
2018-04-11T21:45:21.443Z,2.20
2018-04-11T21:47:53.664Z,2.43
2018-04-11T21:50:25.844Z,2.17
2018-04-11T21:52:58.027Z,2.40
2018-04-11T21:55:30.206Z,2.20
2018-04-11T21:58:02.403Z,2.57
2018-04-11T22:00:34.623Z,2.57
2018-04-11T22:03:06.823Z,2.73
2018-04-11T22:05:38.983Z,2.67
2018-04-11T22:08:11.203Z,2.40
2018-04-11T22:10:43.404Z,2.33
2018-04-11T22:13:15.644Z,2.63
2018-04-11T22:15:47.865Z,2.23
2018-04-11T22:18:20.064Z,2.40
2018-04-11T22:20:52.244Z,2.53
2018-04-11T22:23:24.486Z,2.37
2018-04-11T22:25:56.664Z,2.80
2018-04-11T22:28:28.863Z,1.80
2018-04-11T22:31:00.989Z,2.60
2018-04-11T22:33:33.163Z,2.20
2018-04-11T22:36:05.328Z,2.60
2018-04-11T22:38:37.604Z,2.20
2018-04-11T22:41:09.784Z,2.13
2018-04-11T22:43:41.991Z,2.00
2018-04-11T22:46:14.164Z,2.10
2018-04-11T22:48:46.412Z,2.87
2018-04-11T22:51:18.644Z,2.13
2018-04-11T22:53:50.884Z,2.50
2018-04-11T22:56:23.083Z,2.93
2018-04-11T22:58:55.264Z,2.43
2018-04-11T23:01:27.465Z,2.20
2018-04-11T23:03:59.664Z,2.43
2018-04-11T23:06:31.827Z,2.50
2018-04-11T23:09:04.844Z,2.50
2018-04-11T23:11:37.004Z,2.50
2018-04-11T23:14:09.184Z,2.70
2018-04-11T23:16:41.964Z,3.00
2018-04-11T23:19:14.485Z,2.63
2018-04-11T23:21:46.804Z,2.90
2018-04-11T23:24:19.068Z,2.20
2018-04-11T23:26:51.447Z,2.40
2018-04-11T23:29:23.827Z,3.17
2018-04-11T23:31:56.129Z,2.70
2018-04-11T23:34:28.363Z,2.37
2018-04-11T23:37:00.523Z,2.70
2018-04-11T23:39:32.703Z,2.80
2018-04-11T23:42:04.863Z,2.80
2018-04-11T23:44:37.063Z,3.00
2018-04-11T23:47:09.203Z,2.73
2018-04-11T23:49:41.404Z,3.43
2018-04-11T23:52:13.567Z,2.63
2018-04-11T23:54:47.170Z,2.60
2018-04-11T23:57:19.550Z,3.20
2018-04-11T23:59:51.930Z,2.80
